createdAt,value
2019-02-16T00:00:11.522Z,12.63
2019-02-16T00:02:59.880Z,12.20
2019-02-16T00:05:48.339Z,13.67
2019-02-16T00:08:36.608Z,13.37
2019-02-16T00:11:25.515Z,13.47
2019-02-16T00:14:14.019Z,13.73
2019-02-16T00:17:03.067Z,13.63
2019-02-16T00:19:52.558Z,15.10
2019-02-16T00:22:41.015Z,13.03
2019-02-16T00:25:29.712Z,13.43
2019-02-16T00:28:17.910Z,14.30
2019-02-16T00:31:06.010Z,12.20
2019-02-16T00:33:54.502Z,12.77
2019-02-16T00:36:42.976Z,14.30
2019-02-16T00:39:31.169Z,15.53
2019-02-16T00:42:19.451Z,15.17
2019-02-16T00:45:07.700Z,17.20
2019-02-16T00:47:55.888Z,15.03
2019-02-16T00:50:44.296Z,16.37
2019-02-16T00:53:33.145Z,15.63
2019-02-16T00:56:21.518Z,14.67
2019-02-16T00:59:10.067Z,15.73
2019-02-16T01:01:58.347Z,14.40
2019-02-16T01:04:46.839Z,15.23
2019-02-16T01:07:35.347Z,15.23
2019-02-16T01:10:23.352Z,16.80
2019-02-16T01:13:11.479Z,15.70
2019-02-16T01:15:59.983Z,15.70
2019-02-16T01:18:48.227Z,17.17
2019-02-16T01:21:36.574Z,14.27
2019-02-16T01:24:24.740Z,15.73
2019-02-16T01:27:13.230Z,14.80
2019-02-16T01:30:01.888Z,14.03
2019-02-16T01:32:50.174Z,14.13
2019-02-16T01:35:38.759Z,15.17
2019-02-16T01:38:27.263Z,15.17
2019-02-16T01:41:15.742Z,13.30
2019-02-16T01:44:04.580Z,13.87
2019-02-16T01:46:53.548Z,13.87
2019-02-16T01:49:41.751Z,12.70
2019-02-16T01:52:30.354Z,15.00
2019-02-16T01:55:18.810Z,13.53
2019-02-16T01:58:07.511Z,12.57
2019-02-16T02:00:56.008Z,13.23
2019-02-16T02:03:44.568Z,12.77
2019-02-16T02:06:33.218Z,15.00
2019-02-16T02:09:21.901Z,12.90
2019-02-16T02:12:10.210Z,12.67
2019-02-16T02:14:59.211Z,12.90
2019-02-16T02:17:47.680Z,13.60
2019-02-16T02:20:36.078Z,13.90
2019-02-16T02:23:24.345Z,14.13
2019-02-16T02:26:13.011Z,13.40
2019-02-16T02:29:01.202Z,13.17
2019-02-16T02:31:49.819Z,12.70
2019-02-16T02:34:38.277Z,14.00
2019-02-16T02:37:26.971Z,14.03
2019-02-16T02:40:16.315Z,13.73
2019-02-16T02:43:04.700Z,12.50
2019-02-16T02:45:52.929Z,12.87
2019-02-16T02:48:41.668Z,13.67
2019-02-16T02:51:30.221Z,13.80
2019-02-16T02:54:19.261Z,13.73
2019-02-16T02:57:07.531Z,13.47
2019-02-16T02:59:56.175Z,13.17
2019-02-16T03:02:44.376Z,14.00
2019-02-16T03:05:33.000Z,12.50
2019-02-16T03:08:21.567Z,13.03
2019-02-16T03:11:10.285Z,12.87
2019-02-16T03:13:58.507Z,11.53
2019-02-16T03:16:47.256Z,12.10
2019-02-16T03:19:36.329Z,12.10
2019-02-16T03:22:25.307Z,12.30
2019-02-16T03:25:13.927Z,12.73
2019-02-16T03:28:36.487Z,12.20
2019-02-16T03:32:06.189Z,11.87
2019-02-16T03:35:38.894Z,12.37
2019-02-16T03:39:22.618Z,13.27
2019-02-16T03:42:10.928Z,14.73
2019-02-16T03:44:59.410Z,14.87
2019-02-16T03:47:47.609Z,14.83
2019-02-16T03:50:36.167Z,14.77
2019-02-16T03:53:25.726Z,15.03
2019-02-16T03:56:13.949Z,16.23
2019-02-16T03:59:02.543Z,15.40
2019-02-16T04:01:51.031Z,15.37
2019-02-16T04:04:39.515Z,14.40
2019-02-16T04:07:27.802Z,15.30
2019-02-16T04:10:16.051Z,15.13
2019-02-16T04:13:04.271Z,15.97
2019-02-16T04:15:53.270Z,15.70
2019-02-16T04:18:41.672Z,16.80
2019-02-16T04:21:30.684Z,15.83
2019-02-16T04:24:19.026Z,16.40
2019-02-16T04:27:07.485Z,16.23
2019-02-16T04:29:55.775Z,15.60
2019-02-16T04:32:44.476Z,15.77
2019-02-16T04:35:32.729Z,16.10
2019-02-16T04:38:21.217Z,15.20
2019-02-16T04:41:09.644Z,15.03
2019-02-16T04:43:58.621Z,13.83
2019-02-16T04:46:47.076Z,15.73
2019-02-16T04:49:35.346Z,15.43
2019-02-16T04:52:33.905Z,16.33
2019-02-16T04:55:13.640Z,14.73
2019-02-16T04:58:02.187Z,15.17
2019-02-16T05:00:50.657Z,15.67
2019-02-16T05:03:38.931Z,15.40
2019-02-16T05:06:27.892Z,15.40
2019-02-16T05:09:16.452Z,15.60
2019-02-16T05:12:05.946Z,15.03
2019-02-16T05:14:54.443Z,14.83
2019-02-16T05:17:42.612Z,13.97
2019-02-16T05:20:30.801Z,15.73
2019-02-16T05:23:19.124Z,15.40
2019-02-16T05:26:07.725Z,14.83
2019-02-16T05:28:55.955Z,14.50
2019-02-16T05:31:44.192Z,13.17
2019-02-16T05:34:32.392Z,14.33
2019-02-16T05:37:20.717Z,12.90
2019-02-16T05:40:09.752Z,13.37
2019-02-16T05:42:57.981Z,14.80
2019-02-16T05:45:46.588Z,14.38
2019-02-16T05:48:35.099Z,13.33
2019-02-16T05:51:24.230Z,13.80
2019-02-16T05:54:12.449Z,12.57
2019-02-16T05:57:00.930Z,12.20
2019-02-16T05:59:49.356Z,12.03
2019-02-16T06:02:37.670Z,12.63
2019-02-16T06:05:26.293Z,13.30
2019-02-16T06:08:14.573Z,13.37
2019-02-16T06:11:03.294Z,13.23
2019-02-16T06:13:51.320Z,12.00
2019-02-16T06:16:39.648Z,12.50
2019-02-16T06:19:28.279Z,11.80
2019-02-16T06:22:16.792Z,12.00
2019-02-16T06:25:05.153Z,11.87
2019-02-16T06:27:53.669Z,12.07
2019-02-16T06:30:42.015Z,11.97
2019-02-16T06:33:30.510Z,11.50
2019-02-16T06:36:27.150Z,11.17
2019-02-16T06:39:15.611Z,10.63
2019-02-16T06:42:03.783Z,9.13
2019-02-16T06:44:52.249Z,10.17
2019-02-16T06:47:40.869Z,10.23
2019-02-16T06:50:36.774Z,9.27
2019-02-16T06:53:18.971Z,10.27
2019-02-16T06:56:16.949Z,11.40
2019-02-16T06:59:05.662Z,9.53
2019-02-16T07:01:53.981Z,10.77
2019-02-16T07:04:42.192Z,10.40
2019-02-16T07:07:30.396Z,10.73
2019-02-16T07:10:19.133Z,9.90
2019-02-16T07:13:07.389Z,10.40
2019-02-16T07:16:13.937Z,9.57
2019-02-16T07:19:06.376Z,10.33
2019-02-16T07:21:54.654Z,10.20
2019-02-16T07:24:42.834Z,11.03
2019-02-16T07:27:34.554Z,10.83
2019-02-16T07:30:22.813Z,10.60
2019-02-16T07:33:11.846Z,10.97
2019-02-16T07:36:00.410Z,10.93
2019-02-16T07:38:48.656Z,10.60
2019-02-16T07:41:36.931Z,10.90
2019-02-16T07:44:40.904Z,11.53
2019-02-16T07:47:37.458Z,10.70
2019-02-16T07:50:32.578Z,10.30
2019-02-16T07:53:48.940Z,10.87
2019-02-16T07:57:02.667Z,11.90
2019-02-16T08:00:10.602Z,11.10
2019-02-16T08:03:13.798Z,12.00
2019-02-16T08:06:23.476Z,12.03
2019-02-16T08:09:30.475Z,11.60
2019-02-16T08:12:41.333Z,11.70
2019-02-16T08:16:03.834Z,12.80
2019-02-16T08:18:58.387Z,12.50
2019-02-16T08:22:11.413Z,12.37
2019-02-16T08:25:17.837Z,12.90
2019-02-16T08:28:39.697Z,11.07
2019-02-16T08:31:47.021Z,12.23
2019-02-16T08:34:57.048Z,11.93
2019-02-16T08:38:10.840Z,12.10
2019-02-16T08:41:20.752Z,11.70
2019-02-16T08:44:26.257Z,11.87
2019-02-16T08:47:34.172Z,13.77
2019-02-16T08:50:36.493Z,12.20
2019-02-16T08:53:50.201Z,13.07
2019-02-16T08:56:49.283Z,12.23
2019-02-16T08:59:55.186Z,12.50
2019-02-16T09:02:55.032Z,12.33
2019-02-16T09:06:14.384Z,12.60
2019-02-16T09:09:30.411Z,12.63
2019-02-16T09:12:38.986Z,12.53
2019-02-16T09:15:52.025Z,12.07
2019-02-16T09:19:08.332Z,12.30
2019-02-16T09:22:13.995Z,11.77
2019-02-16T09:25:24.264Z,11.50
2019-02-16T09:28:29.826Z,11.80
2019-02-16T09:31:43.658Z,11.47
2019-02-16T09:34:46.085Z,12.57
2019-02-16T09:37:42.651Z,11.87
2019-02-16T09:40:51.481Z,11.97
2019-02-16T09:44:04.614Z,12.00
2019-02-16T09:47:10.386Z,12.97
2019-02-16T09:50:30.261Z,13.17
2019-02-16T09:53:35.906Z,12.23
2019-02-16T09:56:48.714Z,11.50
2019-02-16T09:59:53.890Z,11.67
2019-02-16T10:02:50.513Z,11.20
2019-02-16T10:06:00.430Z,10.80
2019-02-16T10:09:10.953Z,11.17
2019-02-16T10:12:21.047Z,11.93
2019-02-16T10:15:40.570Z,10.20
2019-02-16T10:18:46.189Z,12.17
2019-02-16T10:21:52.652Z,12.20
2019-02-16T10:24:58.240Z,11.70
2019-02-16T10:27:54.132Z,11.03
2019-02-16T10:30:47.788Z,10.60
2019-02-16T10:33:43.557Z,10.90
2019-02-16T10:36:46.960Z,11.30
2019-02-16T10:39:43.455Z,11.03
2019-02-16T10:42:50.925Z,11.57
2019-02-16T10:46:03.874Z,12.40
2019-02-16T10:49:16.886Z,12.03
2019-02-16T10:52:24.216Z,11.93
2019-02-16T10:55:38.197Z,11.43
2019-02-16T10:58:44.263Z,12.63
2019-02-16T11:01:50.600Z,12.60
2019-02-16T11:04:46.954Z,13.10
2019-02-16T11:08:09.527Z,13.60
2019-02-16T11:11:26.085Z,13.70
2019-02-16T11:14:39.196Z,12.73
2019-02-16T11:17:48.272Z,12.60
2019-02-16T11:21:01.982Z,13.60
2019-02-16T11:24:07.990Z,13.20
2019-02-16T11:27:06.514Z,14.30
2019-02-16T11:30:20.042Z,13.03
2019-02-16T11:33:32.116Z,14.00
2019-02-16T11:36:36.020Z,12.83
2019-02-16T11:39:41.507Z,13.37
2019-02-16T11:42:38.178Z,14.77
2019-02-16T11:45:35.572Z,14.00
2019-02-16T11:48:41.471Z,14.37
2019-02-16T11:51:49.329Z,15.23
2019-02-16T11:54:54.144Z,14.57
2019-02-16T11:58:14.049Z,13.13
2019-02-16T12:01:26.922Z,14.17
2019-02-16T12:04:52.462Z,14.07
2019-02-16T12:08:05.358Z,14.50
2019-02-16T12:11:02.291Z,14.10
2019-02-16T12:14:10.552Z,15.47
2019-02-16T12:17:20.812Z,14.70
2019-02-16T12:20:33.626Z,13.57
2019-02-16T12:23:46.312Z,15.83
2019-02-16T12:26:47.169Z,15.07
2019-02-16T12:29:41.380Z,13.53
2019-02-16T12:32:55.013Z,15.40
2019-02-16T12:35:54.066Z,15.50
2019-02-16T12:39:05.064Z,16.33
2019-02-16T12:42:15.199Z,15.70
2019-02-16T12:45:25.616Z,15.80
2019-02-16T12:48:27.925Z,17.20
2019-02-16T12:51:24.578Z,17.73
2019-02-16T12:54:25.899Z,15.97
2019-02-16T12:57:32.997Z,17.30
2019-02-16T13:00:38.898Z,15.70
2019-02-16T13:03:55.522Z,16.40
2019-02-16T13:07:05.962Z,14.63
2019-02-16T13:10:06.161Z,15.57
2019-02-16T13:13:16.818Z,14.90
2019-02-16T13:16:17.790Z,14.33
2019-02-16T13:19:24.803Z,15.13
2019-02-16T13:22:34.180Z,14.67
2019-02-16T13:25:30.819Z,14.13
2019-02-16T13:28:50.280Z,14.27
2019-02-16T13:31:55.947Z,12.47
2019-02-16T13:35:01.797Z,14.13
2019-02-16T13:38:12.279Z,13.23
2019-02-16T13:41:05.105Z,13.87
2019-02-16T13:44:02.536Z,14.50
2019-02-16T13:47:04.320Z,14.10
2019-02-16T13:50:07.089Z,14.43
2019-02-16T13:53:12.763Z,13.20
2019-02-16T13:56:31.827Z,13.77
2019-02-16T13:59:26.391Z,14.23
2019-02-16T14:02:33.890Z,13.97
2019-02-16T14:05:38.295Z,13.17
2019-02-16T14:08:57.730Z,12.83
2019-02-16T14:12:11.654Z,14.93
2019-02-16T14:15:16.555Z,14.17
2019-02-16T14:18:04.790Z,14.17
2019-02-16T14:20:53.238Z,15.13
2019-02-16T14:23:41.724Z,13.17
2019-02-16T14:26:30.015Z,15.10
2019-02-16T14:29:18.251Z,14.00
2019-02-16T14:32:06.431Z,14.97
2019-02-16T14:34:54.871Z,13.90
2019-02-16T14:38:05.408Z,14.50
2019-02-16T14:40:53.660Z,14.73
2019-02-16T14:43:42.288Z,15.27
2019-02-16T14:46:30.812Z,13.90
2019-02-16T14:49:19.495Z,14.60
2019-02-16T14:52:08.254Z,13.97
2019-02-16T14:54:56.913Z,15.10
2019-02-16T14:57:45.123Z,14.33
2019-02-16T15:00:33.786Z,15.07
2019-02-16T15:03:22.056Z,15.10
2019-02-16T15:06:10.074Z,15.20
2019-02-16T15:08:58.549Z,15.07
2019-02-16T15:11:46.931Z,14.70
2019-02-16T15:14:35.184Z,14.20
2019-02-16T15:17:24.143Z,13.87
2019-02-16T15:20:13.118Z,15.20
2019-02-16T15:23:01.624Z,14.40
2019-02-16T15:25:50.005Z,15.30
2019-02-16T15:28:38.266Z,15.10
2019-02-16T15:31:27.676Z,14.03
2019-02-16T15:34:16.610Z,13.63
2019-02-16T15:37:05.138Z,15.73
2019-02-16T15:39:53.704Z,13.30
2019-02-16T15:42:42.015Z,15.03
2019-02-16T15:45:30.689Z,13.07
2019-02-16T15:48:18.916Z,14.30
2019-02-16T15:51:07.242Z,13.20
2019-02-16T15:53:55.798Z,13.73
2019-02-16T15:56:45.089Z,15.60
2019-02-16T15:59:35.408Z,15.07
2019-02-16T16:02:23.279Z,14.53
2019-02-16T16:05:11.526Z,14.43
2019-02-16T16:08:20.556Z,14.00
2019-02-16T16:11:12.798Z,14.90
2019-02-16T16:14:29.672Z,15.53
2019-02-16T16:17:39.867Z,14.50
2019-02-16T16:20:40.862Z,15.37
2019-02-16T16:24:00.213Z,15.80
2019-02-16T16:27:07.419Z,14.93
2019-02-16T16:30:32.977Z,16.20
2019-02-16T16:33:46.087Z,15.37
2019-02-16T16:36:52.153Z,17.47
2019-02-16T16:40:08.732Z,17.57
2019-02-16T16:43:16.374Z,16.73
2019-02-16T16:46:35.214Z,17.17
2019-02-16T16:49:48.247Z,17.47
2019-02-16T16:53:00.259Z,18.27
2019-02-16T16:55:58.550Z,17.60
2019-02-16T16:59:18.039Z,18.57
2019-02-16T17:02:30.737Z,19.73
2019-02-16T17:05:47.120Z,20.93
2019-02-16T17:09:12.845Z,18.93
2019-02-16T17:12:18.326Z,18.63
2019-02-16T17:15:32.053Z,19.87
2019-02-16T17:18:30.171Z,20.57
2019-02-16T17:21:36.811Z,20.43
2019-02-16T17:24:50.448Z,21.00
2019-02-16T17:28:00.751Z,20.10
2019-02-16T17:31:07.317Z,20.80
2019-02-16T17:34:13.139Z,20.87
2019-02-16T17:37:24.393Z,22.00
2019-02-16T17:40:22.293Z,20.60
2019-02-16T17:43:16.844Z,20.03
2019-02-16T17:46:24.286Z,19.77
2019-02-16T17:49:37.470Z,20.20
2019-02-16T17:52:51.275Z,18.73
2019-02-16T17:55:46.617Z,21.47
2019-02-16T17:58:59.863Z,21.17
2019-02-16T18:01:56.858Z,20.30
2019-02-16T18:05:07.658Z,20.47
2019-02-16T18:08:17.979Z,19.83
2019-02-16T18:11:25.304Z,20.97
2019-02-16T18:14:35.445Z,18.90
2019-02-16T18:17:33.079Z,20.00
2019-02-16T18:20:32.446Z,20.83
2019-02-16T18:23:35.114Z,22.43
2019-02-16T18:26:45.363Z,21.37
2019-02-16T18:29:58.098Z,20.50
2019-02-16T18:33:14.498Z,21.13
2019-02-16T18:36:18.310Z,20.40
2019-02-16T18:39:25.451Z,20.93
2019-02-16T18:42:35.939Z,22.23
2019-02-16T18:45:41.488Z,24.67
2019-02-16T18:48:51.825Z,26.40
2019-02-16T18:52:02.243Z,25.50
2019-02-16T18:55:11.050Z,23.30
2019-02-16T18:58:15.467Z,21.93
2019-02-16T19:01:29.010Z,23.03
2019-02-16T19:04:43.325Z,23.23
2019-02-16T19:07:47.960Z,22.10
2019-02-16T19:10:54.227Z,22.50
2019-02-16T19:14:04.857Z,23.63
2019-02-16T19:17:01.319Z,22.87
2019-02-16T19:20:05.784Z,22.20
2019-02-16T19:23:18.917Z,22.90
2019-02-16T19:26:24.063Z,23.37
2019-02-16T19:29:35.271Z,25.40
2019-02-16T19:32:38.953Z,23.60
2019-02-16T19:35:42.992Z,26.80
2019-02-16T19:38:49.302Z,24.40
2019-02-16T19:41:48.020Z,23.70
2019-02-16T19:44:58.627Z,24.37
2019-02-16T19:47:57.683Z,24.27
2019-02-16T19:50:57.071Z,25.30
2019-02-16T19:54:02.912Z,24.83
2019-02-16T19:57:26.645Z,25.97
2019-02-16T20:00:29.174Z,28.20
2019-02-16T20:03:35.123Z,25.33
2019-02-16T20:06:44.559Z,27.50
2019-02-16T20:09:43.774Z,25.67
2019-02-16T20:12:43.895Z,25.77
2019-02-16T20:15:49.505Z,27.17
2019-02-16T20:19:15.095Z,25.70
2019-02-16T20:22:34.135Z,28.20
2019-02-16T20:25:39.687Z,25.93
2019-02-16T20:28:49.934Z,25.67
2019-02-16T20:31:55.654Z,25.23
2019-02-16T20:35:05.723Z,23.43
2019-02-16T20:38:03.961Z,23.40
2019-02-16T20:41:07.909Z,24.00
2019-02-16T20:44:14.115Z,26.40
2019-02-16T20:47:16.358Z,26.50
2019-02-16T20:50:38.253Z,24.10
2019-02-16T20:53:57.429Z,25.17
2019-02-16T20:56:59.294Z,25.13
2019-02-16T20:59:54.467Z,22.90
2019-02-16T21:03:04.453Z,22.10
2019-02-16T21:06:17.426Z,22.63
2019-02-16T21:09:34.084Z,22.70
2019-02-16T21:12:41.192Z,21.70
2019-02-16T21:15:42.491Z,21.40
2019-02-16T21:18:55.943Z,22.27
2019-02-16T21:22:08.218Z,22.23
2019-02-16T21:25:05.022Z,22.27
2019-02-16T21:28:17.954Z,20.70
2019-02-16T21:31:32.330Z,21.30
2019-02-16T21:34:38.293Z,20.90
2019-02-16T21:37:51.888Z,21.87
2019-02-16T21:40:49.427Z,21.67
2019-02-16T21:43:50.305Z,20.37
2019-02-16T21:46:49.683Z,20.77
2019-02-16T21:50:02.191Z,19.13
2019-02-16T21:53:01.205Z,19.80
2019-02-16T21:56:06.987Z,21.23
2019-02-16T21:59:29.616Z,26.97
2019-02-16T22:02:39.919Z,20.93
2019-02-16T22:05:49.788Z,21.83
2019-02-16T22:09:03.237Z,20.90
2019-02-16T22:12:19.453Z,22.97
2019-02-16T22:15:08.785Z,21.40
2019-02-16T22:17:57.568Z,24.70
2019-02-16T22:20:45.787Z,25.77
2019-02-16T22:23:34.127Z,24.47
2019-02-16T22:26:22.739Z,25.23
2019-02-16T22:29:11.375Z,26.70
2019-02-16T22:31:59.629Z,26.17
2019-02-16T22:34:48.258Z,29.67
2019-02-16T22:37:36.839Z,27.40
2019-02-16T22:40:25.437Z,27.07
2019-02-16T22:43:13.679Z,31.53
2019-02-16T22:46:02.652Z,32.27
2019-02-16T22:48:52.379Z,30.10
2019-02-16T22:51:40.873Z,27.80
2019-02-16T22:54:29.101Z,23.77
2019-02-16T22:57:17.629Z,24.70
2019-02-16T23:00:09.898Z,24.73
2019-02-16T23:02:58.519Z,25.87
2019-02-16T23:05:46.699Z,24.53
2019-02-16T23:08:34.998Z,23.50
2019-02-16T23:11:23.277Z,24.67
2019-02-16T23:14:11.888Z,23.53
2019-02-16T23:17:00.077Z,23.03
2019-02-16T23:19:49.096Z,23.10
2019-02-16T23:22:37.380Z,22.23
2019-02-16T23:25:26.001Z,22.90
2019-02-16T23:28:14.280Z,24.53
2019-02-16T23:31:03.074Z,22.70
2019-02-16T23:33:51.404Z,23.30
2019-02-16T23:36:39.868Z,27.80
2019-02-16T23:39:28.059Z,27.37
2019-02-16T23:42:16.523Z,24.00
2019-02-16T23:45:05.150Z,22.47
2019-02-16T23:47:54.355Z,23.70
2019-02-16T23:50:43.379Z,24.30
2019-02-16T23:53:31.563Z,23.40
2019-02-16T23:56:19.763Z,23.80
2019-02-16T23:59:08.420Z,26.00
